sensor_id;sensor_type;location;lat;lon;timestamp;pressure;altitude;pressure_sealevel;temperature;humidity
22025;BME280;11176;51.448;6.650;2022-12-11T00:00:04;45805.94;;;-141.29;100.00
22025;BME280;11176;51.448;6.650;2022-12-11T00:02:30;45825.91;;;-141.29;100.00
22025;BME280;11176;51.448;6.650;2022-12-11T00:04:57;45819.91;;;-141.29;100.00
22025;BME280;11176;51.448;6.650;2022-12-11T00:07:24;45809.94;;;-141.29;100.00
22025;BME280;11176;51.448;6.650;2022-12-11T00:09:51;45797.94;;;-141.29;100.00
22025;BME280;11176;51.448;6.650;2022-12-11T00:12:17;45821.91;;;-141.29;100.00
22025;BME280;11176;51.448;6.650;2022-12-11T00:14:44;45781.94;;;-141.29;100.00
22025;BME280;11176;51.448;6.650;2022-12-11T00:17:10;45797.94;;;-141.29;100.00
22025;BME280;11176;51.448;6.650;2022-12-11T00:19:37;45813.94;;;-141.29;100.00
22025;BME280;11176;51.448;6.650;2022-12-11T00:22:04;45815.94;;;-141.29;100.00
22025;BME280;11176;51.448;6.650;2022-12-11T00:24:30;45801.94;;;-141.29;100.00
22025;BME280;11176;51.448;6.650;2022-12-11T00:26:57;45797.94;;;-141.29;100.00
22025;BME280;11176;51.448;6.650;2022-12-11T00:29:24;45813.94;;;-141.29;100.00
22025;BME280;11176;51.448;6.650;2022-12-11T00:31:50;45797.94;;;-141.29;100.00
22025;BME280;11176;51.448;6.650;2022-12-11T00:34:17;45801.94;;;-141.29;100.00
22025;BME280;11176;51.448;6.650;2022-12-11T00:36:43;45799.94;;;-141.29;100.00
22025;BME280;11176;51.448;6.650;2022-12-11T00:39:10;45805.94;;;-141.29;100.00
22025;BME280;11176;51.448;6.650;2022-12-11T00:41:36;45809.94;;;-141.29;100.00
22025;BME280;11176;51.448;6.650;2022-12-11T00:44:03;45783.94;;;-141.29;100.00
22025;BME280;11176;51.448;6.650;2022-12-11T00:46:29;45773.94;;;-141.29;100.00
22025;BME280;11176;51.448;6.650;2022-12-11T00:48:56;45783.94;;;-141.29;100.00
22025;BME280;11176;51.448;6.650;2022-12-11T00:51:22;45821.91;;;-141.29;100.00
22025;BME280;11176;51.448;6.650;2022-12-11T00:53:48;45799.94;;;-141.29;100.00
22025;BME280;11176;51.448;6.650;2022-12-11T00:56:17;45793.94;;;-141.29;100.00
22025;BME280;11176;51.448;6.650;2022-12-11T00:58:46;45801.94;;;-141.29;100.00
22025;BME280;11176;51.448;6.650;2022-12-11T01:01:19;45797.94;;;-141.29;100.00
22025;BME280;11176;51.448;6.650;2022-12-11T01:03:46;45805.94;;;-141.29;100.00
22025;BME280;11176;51.448;6.650;2022-12-11T01:06:17;45805.94;;;-141.29;100.00
22025;BME280;11176;51.448;6.650;2022-12-11T01:08:44;45797.94;;;-141.29;100.00
22025;BME280;11176;51.448;6.650;2022-12-11T01:11:14;45827.91;;;-141.29;100.00
22025;BME280;11176;51.448;6.650;2022-12-11T01:13:41;45823.91;;;-141.29;100.00
22025;BME280;11176;51.448;6.650;2022-12-11T01:16:10;45817.91;;;-141.29;100.00
22025;BME280;11176;51.448;6.650;2022-12-11T01:18:37;45793.94;;;-141.29;100.00
22025;BME280;11176;51.448;6.650;2022-12-11T01:21:05;45797.94;;;-141.29;100.00
22025;BME280;11176;51.448;6.650;2022-12-11T01:23:32;45795.94;;;-141.29;100.00
22025;BME280;11176;51.448;6.650;2022-12-11T01:26:10;45825.91;;;-141.29;100.00
22025;BME280;11176;51.448;6.650;2022-12-11T01:28:37;45789.94;;;-141.29;100.00
22025;BME280;11176;51.448;6.650;2022-12-11T01:31:21;45781.94;;;-141.29;100.00
22025;BME280;11176;51.448;6.650;2022-12-11T01:33:48;45805.94;;;-141.29;100.00
22025;BME280;11176;51.448;6.650;2022-12-11T01:36:17;45777.94;;;-141.29;100.00
22025;BME280;11176;51.448;6.650;2022-12-11T01:38:45;45815.94;;;-141.29;100.00
22025;BME280;11176;51.448;6.650;2022-12-11T01:41:12;45813.94;;;-141.29;100.00
22025;BME280;11176;51.448;6.650;2022-12-11T01:43:55;45813.94;;;-141.29;100.00
22025;BME280;11176;51.448;6.650;2022-12-11T01:46:22;45793.94;;;-141.29;100.00
22025;BME280;11176;51.448;6.650;2022-12-11T01:48:49;45789.94;;;-141.29;100.00
22025;BME280;11176;51.448;6.650;2022-12-11T01:51:16;45799.94;;;-141.29;100.00
22025;BME280;11176;51.448;6.650;2022-12-11T01:53:48;45803.94;;;-141.29;100.00
22025;BME280;11176;51.448;6.650;2022-12-11T01:56:15;45797.94;;;-141.29;100.00
22025;BME280;11176;51.448;6.650;2022-12-11T01:58:49;45797.94;;;-141.29;100.00
22025;BME280;11176;51.448;6.650;2022-12-11T02:01:27;45773.94;;;-141.29;100.00
22025;BME280;11176;51.448;6.650;2022-12-11T02:03:56;45801.94;;;-141.29;100.00
22025;BME280;11176;51.448;6.650;2022-12-11T02:08:59;45807.94;;;-141.29;100.00
22025;BME280;11176;51.448;6.650;2022-12-11T02:11:38;45821.91;;;-141.29;100.00
22025;BME280;11176;51.448;6.650;2022-12-11T02:14:18;45799.94;;;-141.29;100.00
22025;BME280;11176;51.448;6.650;2022-12-11T02:17:00;45809.94;;;-141.29;100.00
22025;BME280;11176;51.448;6.650;2022-12-11T02:19:32;45821.91;;;-141.29;100.00
22025;BME280;11176;51.448;6.650;2022-12-11T02:22:10;45795.94;;;-141.29;100.00
22025;BME280;11176;51.448;6.650;2022-12-11T02:27:43;45793.94;;;-141.29;100.00
22025;BME280;11176;51.448;6.650;2022-12-11T02:30:13;45805.94;;;-141.29;100.00
22025;BME280;11176;51.448;6.650;2022-12-11T02:32:53;45809.94;;;-141.29;100.00
22025;BME280;11176;51.448;6.650;2022-12-11T02:35:29;45797.94;;;-141.29;100.00
22025;BME280;11176;51.448;6.650;2022-12-11T02:38:02;45793.94;;;-141.29;100.00
22025;BME280;11176;51.448;6.650;2022-12-11T02:40:31;45783.94;;;-141.29;100.00
22025;BME280;11176;51.448;6.650;2022-12-11T02:43:02;45801.94;;;-141.29;100.00
22025;BME280;11176;51.448;6.650;2022-12-11T02:45:30;45805.94;;;-141.29;100.00
22025;BME280;11176;51.448;6.650;2022-12-11T02:48:00;45805.94;;;-141.29;100.00
22025;BME280;11176;51.448;6.650;2022-12-11T02:50:29;45773.94;;;-141.29;100.00
22025;BME280;11176;51.448;6.650;2022-12-11T02:52:56;45801.94;;;-141.29;100.00
22025;BME280;11176;51.448;6.650;2022-12-11T02:55:28;45797.94;;;-141.29;100.00
22025;BME280;11176;51.448;6.650;2022-12-11T02:58:04;45809.94;;;-141.29;100.00
22025;BME280;11176;51.448;6.650;2022-12-11T03:00:33;45801.94;;;-141.29;100.00
22025;BME280;11176;51.448;6.650;2022-12-11T03:03:00;45817.91;;;-141.29;100.00
22025;BME280;11176;51.448;6.650;2022-12-11T03:05:28;45801.94;;;-141.29;100.00
22025;BME280;11176;51.448;6.650;2022-12-11T03:07:54;45793.94;;;-141.29;100.00
22025;BME280;11176;51.448;6.650;2022-12-11T03:10:21;45797.94;;;-141.29;100.00
22025;BME280;11176;51.448;6.650;2022-12-11T03:12:51;45797.94;;;-141.29;100.00
22025;BME280;11176;51.448;6.650;2022-12-11T03:15:21;45803.94;;;-141.29;100.00
22025;BME280;11176;51.448;6.650;2022-12-11T03:20:45;45785.94;;;-141.29;100.00
22025;BME280;11176;51.448;6.650;2022-12-11T03:23:36;45773.94;;;-141.29;100.00
22025;BME280;11176;51.448;6.650;2022-12-11T03:26:08;45805.94;;;-141.29;100.00
22025;BME280;11176;51.448;6.650;2022-12-11T03:31:12;45795.94;;;-141.29;100.00
22025;BME280;11176;51.448;6.650;2022-12-11T03:33:42;45797.94;;;-141.29;100.00
22025;BME280;11176;51.448;6.650;2022-12-11T03:36:19;45795.94;;;-141.29;100.00
22025;BME280;11176;51.448;6.650;2022-12-11T03:39:09;45795.94;;;-141.29;100.00
22025;BME280;11176;51.448;6.650;2022-12-11T03:41:39;45815.94;;;-141.29;100.00
22025;BME280;11176;51.448;6.650;2022-12-11T03:44:07;45785.94;;;-141.29;100.00
22025;BME280;11176;51.448;6.650;2022-12-11T03:46:38;45781.94;;;-141.29;100.00
22025;BME280;11176;51.448;6.650;2022-12-11T03:49:09;45801.94;;;-141.29;100.00
22025;BME280;11176;51.448;6.650;2022-12-11T03:51:41;45781.94;;;-141.29;100.00
22025;BME280;11176;51.448;6.650;2022-12-11T03:54:09;45765.97;;;-141.29;100.00
22025;BME280;11176;51.448;6.650;2022-12-11T03:56:37;45807.94;;;-141.29;100.00
22025;BME280;11176;51.448;6.650;2022-12-11T03:59:04;45805.94;;;-141.29;100.00
22025;BME280;11176;51.448;6.650;2022-12-11T04:01:31;45791.94;;;-141.29;100.00
22025;BME280;11176;51.448;6.650;2022-12-11T04:03:58;45801.94;;;-141.29;100.00
22025;BME280;11176;51.448;6.650;2022-12-11T04:06:24;45793.94;;;-141.29;100.00
22025;BME280;11176;51.448;6.650;2022-12-11T04:08:50;45789.94;;;-141.29;100.00
22025;BME280;11176;51.448;6.650;2022-12-11T04:11:17;45785.94;;;-141.29;100.00
22025;BME280;11176;51.448;6.650;2022-12-11T04:16:47;45773.94;;;-141.29;100.00
22025;BME280;11176;51.448;6.650;2022-12-11T04:19:13;45789.94;;;-141.29;100.00
22025;BME280;11176;51.448;6.650;2022-12-11T04:21:59;45801.94;;;-141.29;100.00
22025;BME280;11176;51.448;6.650;2022-12-11T04:24:40;45793.94;;;-141.29;100.00
22025;BME280;11176;51.448;6.650;2022-12-11T04:27:07;45799.94;;;-141.29;100.00
22025;BME280;11176;51.448;6.650;2022-12-11T04:29:33;45781.94;;;-141.29;100.00
22025;BME280;11176;51.448;6.650;2022-12-11T04:32:00;45801.94;;;-141.29;100.00
22025;BME280;11176;51.448;6.650;2022-12-11T04:34:26;45781.94;;;-141.29;100.00
22025;BME280;11176;51.448;6.650;2022-12-11T04:36:52;45773.94;;;-141.29;100.00
22025;BME280;11176;51.448;6.650;2022-12-11T04:39:19;45771.94;;;-141.29;100.00
22025;BME280;11176;51.448;6.650;2022-12-11T04:41:45;45811.94;;;-141.29;100.00
22025;BME280;11176;51.448;6.650;2022-12-11T04:44:12;45797.94;;;-141.29;100.00
22025;BME280;11176;51.448;6.650;2022-12-11T04:46:38;45787.94;;;-141.29;100.00
22025;BME280;11176;51.448;6.650;2022-12-11T04:49:05;45793.94;;;-141.29;100.00
22025;BME280;11176;51.448;6.650;2022-12-11T04:51:31;45793.94;;;-141.29;100.00
22025;BME280;11176;51.448;6.650;2022-12-11T04:53:58;45777.94;;;-141.29;100.00
22025;BME280;11176;51.448;6.650;2022-12-11T04:56:25;45809.94;;;-141.29;100.00
22025;BME280;11176;51.448;6.650;2022-12-11T04:58:51;45789.94;;;-141.29;100.00
22025;BME280;11176;51.448;6.650;2022-12-11T05:01:20;45793.94;;;-141.29;100.00
22025;BME280;11176;51.448;6.650;2022-12-11T05:03:47;45803.94;;;-141.29;100.00
22025;BME280;11176;51.448;6.650;2022-12-11T05:06:14;45807.94;;;-141.29;100.00
22025;BME280;11176;51.448;6.650;2022-12-11T05:08:42;45797.94;;;-141.29;100.00
22025;BME280;11176;51.448;6.650;2022-12-11T05:11:11;45789.94;;;-141.29;100.00
22025;BME280;11176;51.448;6.650;2022-12-11T05:13:38;45789.94;;;-141.29;100.00
22025;BME280;11176;51.448;6.650;2022-12-11T05:16:06;45789.94;;;-141.29;100.00
22025;BME280;11176;51.448;6.650;2022-12-11T05:18:34;45783.94;;;-141.29;100.00
22025;BME280;11176;51.448;6.650;2022-12-11T05:21:03;45803.94;;;-141.29;100.00
22025;BME280;11176;51.448;6.650;2022-12-11T05:23:30;45817.91;;;-141.29;100.00
22025;BME280;11176;51.448;6.650;2022-12-11T05:26:00;45763.97;;;-141.29;100.00
22025;BME280;11176;51.448;6.650;2022-12-11T05:28:30;45793.94;;;-141.29;100.00
22025;BME280;11176;51.448;6.650;2022-12-11T05:30:58;45803.94;;;-141.29;100.00
22025;BME280;11176;51.448;6.650;2022-12-11T05:33:25;45799.94;;;-141.29;100.00
22025;BME280;11176;51.448;6.650;2022-12-11T05:35:52;45805.94;;;-141.29;100.00
22025;BME280;11176;51.448;6.650;2022-12-11T05:38:19;45785.94;;;-141.29;100.00
22025;BME280;11176;51.448;6.650;2022-12-11T05:40:55;45793.94;;;-141.29;100.00
22025;BME280;11176;51.448;6.650;2022-12-11T05:43:22;45777.94;;;-141.29;100.00
22025;BME280;11176;51.448;6.650;2022-12-11T05:45:48;45781.94;;;-141.29;100.00
22025;BME280;11176;51.448;6.650;2022-12-11T05:48:15;45783.94;;;-141.29;100.00
22025;BME280;11176;51.448;6.650;2022-12-11T05:50:41;45791.94;;;-141.29;100.00
22025;BME280;11176;51.448;6.650;2022-12-11T05:53:08;45793.94;;;-141.29;100.00
22025;BME280;11176;51.448;6.650;2022-12-11T05:55:34;45789.94;;;-141.29;100.00
22025;BME280;11176;51.448;6.650;2022-12-11T05:58:01;45793.94;;;-141.29;100.00
22025;BME280;11176;51.448;6.650;2022-12-11T06:00:27;45781.94;;;-141.29;100.00
22025;BME280;11176;51.448;6.650;2022-12-11T06:03:01;45801.94;;;-141.29;100.00
22025;BME280;11176;51.448;6.650;2022-12-11T06:05:27;45795.94;;;-141.29;100.00
22025;BME280;11176;51.448;6.650;2022-12-11T06:07:54;45803.94;;;-141.29;100.00
22025;BME280;11176;51.448;6.650;2022-12-11T06:10:20;45773.94;;;-141.29;100.00
22025;BME280;11176;51.448;6.650;2022-12-11T06:12:47;45799.94;;;-141.29;100.00
22025;BME280;11176;51.448;6.650;2022-12-11T06:15:13;45777.94;;;-141.29;100.00
22025;BME280;11176;51.448;6.650;2022-12-11T06:17:39;45793.94;;;-141.29;100.00
22025;BME280;11176;51.448;6.650;2022-12-11T06:20:07;45799.94;;;-141.29;100.00
22025;BME280;11176;51.448;6.650;2022-12-11T06:22:33;45801.94;;;-141.29;100.00
22025;BME280;11176;51.448;6.650;2022-12-11T06:25:00;45775.94;;;-141.29;100.00
22025;BME280;11176;51.448;6.650;2022-12-11T06:27:27;45793.94;;;-141.29;100.00
22025;BME280;11176;51.448;6.650;2022-12-11T06:29:53;45789.94;;;-141.29;100.00
22025;BME280;11176;51.448;6.650;2022-12-11T06:32:19;45831.91;;;-141.29;100.00
22025;BME280;11176;51.448;6.650;2022-12-11T06:34:47;45793.94;;;-141.29;100.00
22025;BME280;11176;51.448;6.650;2022-12-11T06:37:13;45769.97;;;-141.29;100.00
22025;BME280;11176;51.448;6.650;2022-12-11T06:39:40;45779.94;;;-141.29;100.00
22025;BME280;11176;51.448;6.650;2022-12-11T06:42:06;45805.94;;;-141.29;100.00
22025;BME280;11176;51.448;6.650;2022-12-11T06:44:33;45789.94;;;-141.29;100.00
22025;BME280;11176;51.448;6.650;2022-12-11T06:46:59;45811.94;;;-141.29;100.00
22025;BME280;11176;51.448;6.650;2022-12-11T06:49:26;45789.94;;;-141.29;100.00
22025;BME280;11176;51.448;6.650;2022-12-11T06:51:52;45783.94;;;-141.29;100.00
22025;BME280;11176;51.448;6.650;2022-12-11T06:54:18;45783.94;;;-141.29;100.00
22025;BME280;11176;51.448;6.650;2022-12-11T06:56:45;45785.94;;;-141.29;100.00
22025;BME280;11176;51.448;6.650;2022-12-11T06:59:12;45805.94;;;-141.29;100.00
22025;BME280;11176;51.448;6.650;2022-12-11T07:01:38;45801.94;;;-141.29;100.00
22025;BME280;11176;51.448;6.650;2022-12-11T07:04:07;45791.94;;;-141.29;100.00
22025;BME280;11176;51.448;6.650;2022-12-11T07:06:34;45793.94;;;-141.29;100.00
22025;BME280;11176;51.448;6.650;2022-12-11T07:09:03;45777.94;;;-141.29;100.00
22025;BME280;11176;51.448;6.650;2022-12-11T07:11:30;45801.94;;;-141.29;100.00
22025;BME280;11176;51.448;6.650;2022-12-11T07:14:00;45773.94;;;-141.29;100.00
22025;BME280;11176;51.448;6.650;2022-12-11T07:16:26;45797.94;;;-141.29;100.00
22025;BME280;11176;51.448;6.650;2022-12-11T07:18:53;45801.94;;;-141.29;100.00
22025;BME280;11176;51.448;6.650;2022-12-11T07:21:19;45783.94;;;-141.29;100.00
22025;BME280;11176;51.448;6.650;2022-12-11T07:23:47;45789.94;;;-141.29;100.00
22025;BME280;11176;51.448;6.650;2022-12-11T07:26:16;45809.94;;;-141.29;100.00
22025;BME280;11176;51.448;6.650;2022-12-11T07:28:44;45793.94;;;-141.29;100.00
22025;BME280;11176;51.448;6.650;2022-12-11T07:31:13;45807.94;;;-141.29;100.00
22025;BME280;11176;51.448;6.650;2022-12-11T07:33:41;45809.94;;;-141.29;100.00
22025;BME280;11176;51.448;6.650;2022-12-11T07:36:10;45781.94;;;-141.29;100.00
22025;BME280;11176;51.448;6.650;2022-12-11T07:38:36;45793.94;;;-141.29;100.00
22025;BME280;11176;51.448;6.650;2022-12-11T07:41:05;45781.94;;;-141.29;100.00
22025;BME280;11176;51.448;6.650;2022-12-11T07:43:33;45793.94;;;-141.29;100.00
22025;BME280;11176;51.448;6.650;2022-12-11T07:46:04;45777.94;;;-141.29;100.00
22025;BME280;11176;51.448;6.650;2022-12-11T07:48:34;45793.94;;;-141.29;100.00
22025;BME280;11176;51.448;6.650;2022-12-11T07:51:30;45777.94;;;-141.29;100.00
22025;BME280;11176;51.448;6.650;2022-12-11T07:53:59;45781.94;;;-141.29;100.00
22025;BME280;11176;51.448;6.650;2022-12-11T07:56:27;45789.94;;;-141.29;100.00
22025;BME280;11176;51.448;6.650;2022-12-11T07:58:54;45771.94;;;-141.29;100.00
22025;BME280;11176;51.448;6.650;2022-12-11T08:01:24;45789.94;;;-141.29;100.00
22025;BME280;11176;51.448;6.650;2022-12-11T08:03:52;45771.94;;;-141.29;100.00
22025;BME280;11176;51.448;6.650;2022-12-11T08:06:19;45805.94;;;-141.29;100.00
22025;BME280;11176;51.448;6.650;2022-12-11T08:08:49;45801.94;;;-141.29;100.00
22025;BME280;11176;51.448;6.650;2022-12-11T08:11:16;45773.94;;;-141.29;100.00
22025;BME280;11176;51.448;6.650;2022-12-11T08:13:42;45793.94;;;-141.29;100.00
22025;BME280;11176;51.448;6.650;2022-12-11T08:16:12;45783.94;;;-141.29;100.00
22025;BME280;11176;51.448;6.650;2022-12-11T08:18:40;45781.94;;;-141.29;100.00
22025;BME280;11176;51.448;6.650;2022-12-11T08:21:08;45797.94;;;-141.29;100.00
22025;BME280;11176;51.448;6.650;2022-12-11T08:23:35;45785.94;;;-141.29;100.00
22025;BME280;11176;51.448;6.650;2022-12-11T08:26:04;45785.94;;;-141.29;99.69
22025;BME280;11176;51.448;6.650;2022-12-11T08:28:31;45781.94;;;-141.29;98.80
22025;BME280;11176;51.448;6.650;2022-12-11T08:30:58;45793.94;;;-141.29;99.52
22025;BME280;11176;51.448;6.650;2022-12-11T08:33:25;45807.94;;;-141.29;99.01
22025;BME280;11176;51.448;6.650;2022-12-11T08:35:51;45793.94;;;-141.29;98.77
22025;BME280;11176;51.448;6.650;2022-12-11T08:38:18;45793.94;;;-141.29;99.05
22025;BME280;11176;51.448;6.650;2022-12-11T08:40:50;45795.94;;;-141.29;99.52
22025;BME280;11176;51.448;6.650;2022-12-11T08:43:17;45791.94;;;-141.29;100.00
22025;BME280;11176;51.448;6.650;2022-12-11T08:45:45;45773.94;;;-141.29;99.85
22025;BME280;11176;51.448;6.650;2022-12-11T08:48:11;45785.94;;;-141.29;99.30
22025;BME280;11176;51.448;6.650;2022-12-11T08:50:38;45781.94;;;-141.29;98.35
22025;BME280;11176;51.448;6.650;2022-12-11T08:53:04;45797.94;;;-141.29;99.25
22025;BME280;11176;51.448;6.650;2022-12-11T08:55:32;45777.94;;;-141.29;100.00
22025;BME280;11176;51.448;6.650;2022-12-11T08:57:58;45787.94;;;-141.29;100.00
22025;BME280;11176;51.448;6.650;2022-12-11T09:00:26;45779.94;;;-141.29;99.33
22025;BME280;11176;51.448;6.650;2022-12-11T09:02:52;45801.94;;;-141.29;99.13
22025;BME280;11176;51.448;6.650;2022-12-11T09:05:19;45785.94;;;-141.29;99.02
22025;BME280;11176;51.448;6.650;2022-12-11T09:07:45;45785.94;;;-141.29;98.73
22025;BME280;11176;51.448;6.650;2022-12-11T09:10:12;45781.94;;;-141.29;97.90
22025;BME280;11176;51.448;6.650;2022-12-11T09:12:39;45775.94;;;-141.29;97.85
22025;BME280;11176;51.448;6.650;2022-12-11T09:15:06;45803.94;;;-141.29;97.67
22025;BME280;11176;51.448;6.650;2022-12-11T09:17:33;45781.94;;;-141.29;97.17
22025;BME280;11176;51.448;6.650;2022-12-11T09:20:00;45771.94;;;-141.29;97.01
22025;BME280;11176;51.448;6.650;2022-12-11T09:22:26;45781.94;;;-141.29;97.59
22025;BME280;11176;51.448;6.650;2022-12-11T09:24:53;45801.94;;;-141.29;96.78
22025;BME280;11176;51.448;6.650;2022-12-11T09:27:19;45773.94;;;-141.29;96.95
22025;BME280;11176;51.448;6.650;2022-12-11T09:29:46;45775.94;;;-141.29;97.30
22025;BME280;11176;51.448;6.650;2022-12-11T09:32:13;45801.94;;;-141.29;97.03
22025;BME280;11176;51.448;6.650;2022-12-11T09:34:39;45805.94;;;-141.29;96.38
22025;BME280;11176;51.448;6.650;2022-12-11T09:37:06;45773.94;;;-141.29;95.98
22025;BME280;11176;51.448;6.650;2022-12-11T09:39:32;45797.94;;;-141.29;95.88
22025;BME280;11176;51.448;6.650;2022-12-11T09:42:20;45769.97;;;-141.29;95.22
22025;BME280;11176;51.448;6.650;2022-12-11T09:44:52;45757.97;;;-141.29;95.56
22025;BME280;11176;51.448;6.650;2022-12-11T09:47:22;45787.94;;;-141.29;95.63
22025;BME280;11176;51.448;6.650;2022-12-11T09:49:56;45781.94;;;-141.29;95.06
22025;BME280;11176;51.448;6.650;2022-12-11T09:52:52;45777.94;;;-141.29;94.24
22025;BME280;11176;51.448;6.650;2022-12-11T09:55:25;45771.94;;;-141.29;94.13
22025;BME280;11176;51.448;6.650;2022-12-11T09:58:09;45813.94;;;-141.29;93.88
22025;BME280;11176;51.448;6.650;2022-12-11T10:01:27;45789.94;;;-141.29;93.92
22025;BME280;11176;51.448;6.650;2022-12-11T10:03:58;45757.97;;;-141.29;93.99
22025;BME280;11176;51.448;6.650;2022-12-11T10:06:34;45773.94;;;-141.29;93.10
22025;BME280;11176;51.448;6.650;2022-12-11T10:17:33;45757.97;;;-141.29;92.15
22025;BME280;11176;51.448;6.650;2022-12-11T10:20:26;45777.94;;;-141.29;91.27
22025;BME280;11176;51.448;6.650;2022-12-11T10:22:53;45773.94;;;-141.29;91.12
22025;BME280;11176;51.448;6.650;2022-12-11T10:27:54;45785.94;;;-141.29;91.45
22025;BME280;11176;51.448;6.650;2022-12-11T10:30:26;45769.97;;;-141.29;90.39
22025;BME280;11176;51.448;6.650;2022-12-11T10:33:16;45797.94;;;-141.29;90.75
22025;BME280;11176;51.448;6.650;2022-12-11T10:35:51;45777.94;;;-141.29;90.75
22025;BME280;11176;51.448;6.650;2022-12-11T10:38:31;45757.97;;;-141.29;90.98
22025;BME280;11176;51.448;6.650;2022-12-11T10:41:04;45769.97;;;-141.29;91.85
22025;BME280;11176;51.448;6.650;2022-12-11T10:46:06;45773.94;;;-141.29;91.23
22025;BME280;11176;51.448;6.650;2022-12-11T10:51:15;45765.97;;;-141.29;90.72
22025;BME280;11176;51.448;6.650;2022-12-11T10:53:43;45777.94;;;-141.29;90.70
22025;BME280;11176;51.448;6.650;2022-12-11T10:56:14;45789.94;;;-141.29;90.54
22025;BME280;11176;51.448;6.650;2022-12-11T10:58:48;45777.94;;;-141.29;90.71
22025;BME280;11176;51.448;6.650;2022-12-11T11:01:19;45761.97;;;-141.29;90.82
22025;BME280;11176;51.448;6.650;2022-12-11T11:04:03;45781.94;;;-141.29;90.84
22025;BME280;11176;51.448;6.650;2022-12-11T11:06:32;45765.97;;;-141.29;90.60
22025;BME280;11176;51.448;6.650;2022-12-11T11:09:00;45779.94;;;-141.29;90.13
22025;BME280;11176;51.448;6.650;2022-12-11T11:11:32;45769.97;;;-141.29;90.49
22025;BME280;11176;51.448;6.650;2022-12-11T11:14:12;45757.97;;;-141.29;91.27
22025;BME280;11176;51.448;6.650;2022-12-11T11:16:40;45769.97;;;-141.29;89.66
22025;BME280;11176;51.448;6.650;2022-12-11T11:19:16;45765.97;;;-141.29;89.80
22025;BME280;11176;51.448;6.650;2022-12-11T11:21:49;45789.94;;;-141.29;89.71
22025;BME280;11176;51.448;6.650;2022-12-11T11:24:43;45773.94;;;-141.29;89.70
22025;BME280;11176;51.448;6.650;2022-12-11T11:27:16;45765.97;;;-141.29;90.65
22025;BME280;11176;51.448;6.650;2022-12-11T11:29:52;45749.97;;;-141.29;91.13
22025;BME280;11176;51.448;6.650;2022-12-11T11:32:23;45765.97;;;-141.29;90.64
22025;BME280;11176;51.448;6.650;2022-12-11T11:37:40;45759.97;;;-141.29;90.58
22025;BME280;11176;51.448;6.650;2022-12-11T11:40:18;45773.94;;;-141.29;90.22
22025;BME280;11176;51.448;6.650;2022-12-11T11:43:12;45753.97;;;-141.29;89.82
22025;BME280;11176;51.448;6.650;2022-12-11T11:45:54;45769.97;;;-141.29;89.69
22025;BME280;11176;51.448;6.650;2022-12-11T11:51:23;45779.94;;;-141.29;90.52
22025;BME280;11176;51.448;6.650;2022-12-11T11:53:54;45789.94;;;-141.29;89.82
22025;BME280;11176;51.448;6.650;2022-12-11T11:56:30;45779.94;;;-141.29;89.84
22025;BME280;11176;51.448;6.650;2022-12-11T12:01:31;45765.97;;;-141.29;90.71
22025;BME280;11176;51.448;6.650;2022-12-11T12:03:58;45773.94;;;-141.29;90.82
22025;BME280;11176;51.448;6.650;2022-12-11T12:09:05;45761.97;;;-141.29;91.38
22025;BME280;11176;51.448;6.650;2022-12-11T12:14:43;45767.97;;;-141.29;90.50
22025;BME280;11176;51.448;6.650;2022-12-11T12:23:56;45759.97;;;-141.29;90.78
22025;BME280;11176;51.448;6.650;2022-12-11T12:26:34;45745.97;;;-141.29;89.91
22025;BME280;11176;51.448;6.650;2022-12-11T12:37:07;45769.97;;;-141.29;90.51
22025;BME280;11176;51.448;6.650;2022-12-11T12:39:55;45765.97;;;-141.29;91.06
22025;BME280;11176;51.448;6.650;2022-12-11T12:42:51;45737.97;;;-141.29;90.78
22025;BME280;11176;51.448;6.650;2022-12-11T12:47:51;45773.94;;;-141.29;88.64
22025;BME280;11176;51.448;6.650;2022-12-11T12:50:21;45741.97;;;-141.29;89.04
22025;BME280;11176;51.448;6.650;2022-12-11T12:52:50;45781.94;;;-141.29;89.12
22025;BME280;11176;51.448;6.650;2022-12-11T12:55:22;45765.97;;;-141.29;88.32
22025;BME280;11176;51.448;6.650;2022-12-11T12:57:55;45759.97;;;-141.29;89.09
22025;BME280;11176;51.448;6.650;2022-12-11T13:02:52;45769.97;;;-141.29;88.14
22025;BME280;11176;51.448;6.650;2022-12-11T13:05:27;45777.94;;;-141.29;87.43
22025;BME280;11176;51.448;6.650;2022-12-11T13:07:55;45759.97;;;-141.29;87.74
22025;BME280;11176;51.448;6.650;2022-12-11T13:10:36;45765.97;;;-141.29;88.05
22025;BME280;11176;51.448;6.650;2022-12-11T13:13:05;45783.94;;;-141.29;88.02
22025;BME280;11176;51.448;6.650;2022-12-11T13:15:50;45763.97;;;-141.29;88.38
22025;BME280;11176;51.448;6.650;2022-12-11T13:18:37;45759.97;;;-141.29;88.22
22025;BME280;11176;51.448;6.650;2022-12-11T13:21:27;45761.97;;;-141.29;86.84
22025;BME280;11176;51.448;6.650;2022-12-11T13:26:38;45749.97;;;-141.29;88.73
22025;BME280;11176;51.448;6.650;2022-12-11T13:29:05;45753.97;;;-141.29;87.73
22025;BME280;11176;51.448;6.650;2022-12-11T13:31:36;45761.97;;;-141.29;87.58
22025;BME280;11176;51.448;6.650;2022-12-11T13:34:14;45785.94;;;-141.29;85.23
22025;BME280;11176;51.448;6.650;2022-12-11T13:36:46;45769.97;;;-141.29;86.59
22025;BME280;11176;51.448;6.650;2022-12-11T13:39:17;45773.94;;;-141.29;86.70
22025;BME280;11176;51.448;6.650;2022-12-11T13:41:50;45765.97;;;-141.29;86.08
22025;BME280;11176;51.448;6.650;2022-12-11T13:44:25;45753.97;;;-141.29;86.21
22025;BME280;11176;51.448;6.650;2022-12-11T13:46:52;45767.97;;;-141.29;86.06
22025;BME280;11176;51.448;6.650;2022-12-11T13:49:26;45773.94;;;-141.29;85.61
22025;BME280;11176;51.448;6.650;2022-12-11T13:51:56;45771.94;;;-141.29;85.37
22025;BME280;11176;51.448;6.650;2022-12-11T13:54:24;45753.97;;;-141.29;85.33